createdAt,value
2023-03-21T00:02:24.048Z,7.74
2023-03-21T00:06:25.555Z,7.62
2023-03-21T00:10:39.898Z,7.56
2023-03-21T00:14:46.572Z,7.56
2023-03-21T00:18:50.402Z,7.53
2023-03-21T00:22:51.826Z,7.49
2023-03-21T00:26:53.904Z,7.37
2023-03-21T00:30:59.406Z,7.40
2023-03-21T00:35:23.335Z,7.27
2023-03-21T00:39:22.238Z,7.29
2023-03-21T00:43:23.714Z,7.20
2023-03-21T00:47:26.623Z,7.21
2023-03-21T00:51:28.089Z,7.22
2023-03-21T00:55:29.560Z,7.14
2023-03-21T00:59:31.073Z,7.02
2023-03-21T01:03:34.560Z,6.90
2023-03-21T01:07:36.000Z,6.89
2023-03-21T01:11:37.470Z,6.88
2023-03-21T01:15:44.276Z,6.92
2023-03-21T01:19:51.943Z,6.97
2023-03-21T01:23:53.897Z,7.00
2023-03-21T01:27:55.310Z,7.05
2023-03-21T01:31:56.785Z,7.04
2023-03-21T01:36:10.354Z,7.03
2023-03-21T01:40:19.064Z,7.05
2023-03-21T01:44:20.476Z,7.05
2023-03-21T01:48:24.050Z,7.06
2023-03-21T01:52:37.116Z,7.04
2023-03-21T01:56:40.273Z,7.14
2023-03-21T02:00:41.896Z,7.21
2023-03-21T02:04:43.742Z,7.24
2023-03-21T02:08:46.560Z,7.18
2023-03-21T02:12:48.290Z,7.17
2023-03-21T02:16:56.128Z,6.99
2023-03-21T02:21:18.887Z,6.89
2023-03-21T02:25:41.119Z,6.77
2023-03-21T02:30:26.435Z,6.65
2023-03-21T02:34:40.082Z,6.60
2023-03-21T02:38:52.533Z,6.43
2023-03-21T02:43:04.278Z,6.39
2023-03-21T02:47:11.833Z,6.24
2023-03-21T02:51:18.682Z,6.06
2023-03-21T02:55:24.974Z,6.22
2023-03-21T02:59:27.431Z,6.13
2023-03-21T03:03:34.534Z,6.06
2023-03-21T03:07:42.381Z,5.96
2023-03-21T03:11:46.645Z,5.86
2023-03-21T03:15:58.057Z,5.79
2023-03-21T03:20:17.195Z,5.78
2023-03-21T03:24:26.459Z,5.76
2023-03-21T03:28:33.153Z,5.74
2023-03-21T03:32:38.945Z,5.73
2023-03-21T03:36:42.965Z,5.74
2023-03-21T03:40:48.759Z,5.76
2023-03-21T03:44:51.978Z,5.79
2023-03-21T03:48:57.691Z,5.82
2023-03-21T03:53:09.825Z,5.86
2023-03-21T03:57:17.892Z,5.91
2023-03-21T04:01:20.642Z,5.92
2023-03-21T04:05:22.064Z,5.98
2023-03-21T04:09:37.265Z,5.91
2023-03-21T04:13:44.397Z,5.97
2023-03-21T04:17:47.135Z,6.00
2023-03-21T04:21:48.601Z,5.98
2023-03-21T04:25:56.345Z,6.00
2023-03-21T04:29:58.476Z,6.02
2023-03-21T04:34:03.537Z,6.01
2023-03-21T04:38:04.998Z,6.00
2023-03-21T04:42:06.411Z,6.07
2023-03-21T04:46:07.856Z,6.03
2023-03-21T04:50:12.007Z,5.93
2023-03-21T04:58:15.080Z,5.97
2023-03-21T05:02:16.536Z,6.05
2023-03-21T05:06:19.274Z,6.12
2023-03-21T05:10:20.677Z,6.11
2023-03-21T05:14:24.728Z,6.05
2023-03-21T05:18:26.304Z,6.09
2023-03-21T05:22:29.068Z,6.07
2023-03-21T05:26:30.449Z,6.05
2023-03-21T05:30:33.518Z,6.03
2023-03-21T05:34:34.976Z,6.09
2023-03-21T05:38:38.803Z,6.12
2023-03-21T05:42:40.227Z,6.10
2023-03-21T05:46:42.277Z,6.08
2023-03-21T05:50:43.671Z,5.99
2023-03-21T05:54:46.503Z,5.88
2023-03-21T05:58:47.924Z,5.84
2023-03-21T06:02:49.422Z,5.82
2023-03-21T06:06:51.156Z,5.80
2023-03-21T06:10:53.907Z,6.04
2023-03-21T06:14:55.420Z,6.17
2023-03-21T06:18:56.928Z,6.29
2023-03-21T06:22:58.464Z,6.41
2023-03-21T06:27:03.520Z,6.47
2023-03-21T06:31:05.873Z,6.54
2023-03-21T06:35:07.872Z,6.75
2023-03-21T06:39:09.275Z,6.65
2023-03-21T06:43:12.014Z,6.72
2023-03-21T06:47:13.464Z,6.89
2023-03-21T06:51:16.028Z,6.97
2023-03-21T06:55:17.562Z,7.14
2023-03-21T06:59:20.349Z,7.22
2023-03-21T07:03:21.768Z,7.24
2023-03-21T07:07:25.299Z,7.37
2023-03-21T07:11:26.702Z,7.36
2023-03-21T07:15:29.454Z,7.54
2023-03-21T07:19:30.905Z,7.25
2023-03-21T07:23:32.444Z,7.21
2023-03-21T07:27:33.869Z,7.04
2023-03-21T07:31:36.641Z,7.13
2023-03-21T07:35:38.979Z,7.36
2023-03-21T07:39:40.573Z,7.48
2023-03-21T07:43:41.984Z,7.59
2023-03-21T07:47:44.805Z,7.71
2023-03-21T07:51:46.239Z,7.98
2023-03-21T07:55:50.632Z,8.21
2023-03-21T07:59:52.041Z,8.28
2023-03-21T08:03:55.024Z,8.02
2023-03-21T08:07:56.840Z,8.10
2023-03-21T08:11:58.249Z,8.33
2023-03-21T08:15:59.797Z,8.24
2023-03-21T08:20:02.580Z,8.34
2023-03-21T08:24:04.317Z,8.57
2023-03-21T08:28:05.758Z,8.51
2023-03-21T08:32:07.226Z,8.59
2023-03-21T08:36:10.857Z,8.76
2023-03-21T08:40:14.523Z,8.59
2023-03-21T08:44:15.990Z,8.80
2023-03-21T08:48:17.604Z,8.87
2023-03-21T08:52:20.417Z,9.19
2023-03-21T08:56:21.855Z,9.25
2023-03-21T09:00:23.783Z,9.25
2023-03-21T09:04:25.321Z,9.17
2023-03-21T09:08:28.154Z,9.13
2023-03-21T09:12:29.749Z,9.42
2023-03-21T09:16:31.496Z,9.48
2023-03-21T09:20:33.057Z,9.63
2023-03-21T09:24:35.904Z,9.29
2023-03-21T09:28:37.320Z,9.19
2023-03-21T09:32:38.847Z,9.03
2023-03-21T09:36:40.270Z,9.40
2023-03-21T09:40:56.928Z,9.32
2023-03-21T09:45:07.945Z,9.51
2023-03-21T09:49:16.441Z,9.65
2023-03-21T09:53:22.613Z,10.21
2023-03-21T09:57:31.501Z,10.41
2023-03-21T10:01:33.789Z,10.67
2023-03-21T10:05:38.561Z,10.76
2023-03-21T10:09:41.415Z,10.69
2023-03-21T10:13:49.243Z,11.11
2023-03-21T10:17:59.628Z,11.34
2023-03-21T10:22:03.469Z,11.12
2023-03-21T10:26:06.961Z,11.48
2023-03-21T10:30:20.175Z,11.57
2023-03-21T10:34:29.832Z,11.72
2023-03-21T10:38:31.345Z,11.92
2023-03-21T10:42:33.691Z,12.16
2023-03-21T10:46:36.766Z,11.98
2023-03-21T10:50:38.493Z,11.84
2023-03-21T10:54:40.187Z,11.83
2023-03-21T10:58:44.684Z,12.21
2023-03-21T11:02:50.845Z,11.69
2023-03-21T11:06:54.195Z,11.48
2023-03-21T11:11:01.406Z,11.90
2023-03-21T11:15:26.244Z,12.21
2023-03-21T11:19:32.811Z,12.21
2023-03-21T11:23:38.446Z,12.40
2023-03-21T11:27:47.656Z,12.31
2023-03-21T11:31:49.225Z,12.23
2023-03-21T11:36:03.766Z,12.50
2023-03-21T11:40:19.625Z,12.82
2023-03-21T11:44:27.502Z,12.90
2023-03-21T11:48:29.077Z,12.65
2023-03-21T11:52:38.889Z,12.85
2023-03-21T11:56:44.102Z,13.20
2023-03-21T12:00:52.027Z,13.49
2023-03-21T12:04:57.091Z,13.50
2023-03-21T12:09:09.235Z,13.35
2023-03-21T12:13:28.192Z,12.77
2023-03-21T12:17:48.412Z,13.12
2023-03-21T12:22:02.095Z,13.21
2023-03-21T12:26:14.002Z,13.24
2023-03-21T12:30:32.898Z,13.11
2023-03-21T12:35:09.294Z,13.12
2023-03-21T12:39:25.329Z,13.51
2023-03-21T12:43:41.798Z,13.86
2023-03-21T12:47:47.174Z,14.34
2023-03-21T12:51:54.856Z,13.93
2023-03-21T12:56:01.257Z,13.93
2023-03-21T13:00:10.374Z,14.04
2023-03-21T13:04:32.977Z,14.03
2023-03-21T13:08:38.475Z,14.43
2023-03-21T13:12:56.942Z,14.47
2023-03-21T13:17:06.795Z,14.49
2023-03-21T13:21:15.484Z,14.46
2023-03-21T13:25:19.364Z,14.12
2023-03-21T13:29:24.332Z,14.44
2023-03-21T13:33:29.597Z,14.35
2023-03-21T13:37:33.764Z,14.24
2023-03-21T13:41:37.826Z,14.47
2023-03-21T13:45:46.128Z,14.63
2023-03-21T13:50:22.110Z,14.80
2023-03-21T13:54:28.367Z,14.80
2023-03-21T13:58:34.851Z,14.76
2023-03-21T14:02:38.909Z,14.95
2023-03-21T14:06:51.129Z,14.67
2023-03-21T14:10:56.194Z,14.67
2023-03-21T14:15:14.125Z,14.65
2023-03-21T14:19:18.566Z,14.40
2023-03-21T14:23:22.508Z,14.49
2023-03-21T14:27:29.433Z,14.68
2023-03-21T14:31:32.170Z,14.58
2023-03-21T14:35:33.795Z,14.70
2023-03-21T14:39:36.602Z,14.91
2023-03-21T14:43:38.046Z,15.00
2023-03-21T14:47:39.511Z,15.09
2023-03-21T14:51:41.217Z,14.79
2023-03-21T14:55:47.672Z,14.52
2023-03-21T14:59:52.315Z,14.33
2023-03-21T15:03:53.861Z,14.22
2023-03-21T15:07:58.106Z,14.26
2023-03-21T15:12:07.198Z,14.21
2023-03-21T15:16:11.106Z,14.12
2023-03-21T15:20:14.554Z,14.03
2023-03-21T15:24:20.314Z,13.93
2023-03-21T15:28:25.040Z,13.77
2023-03-21T15:32:28.285Z,13.66
2023-03-21T15:36:34.613Z,13.53
2023-03-21T15:40:36.223Z,13.51
2023-03-21T15:44:45.764Z,13.32
2023-03-21T15:48:47.207Z,13.24
2023-03-21T15:52:49.906Z,13.16
2023-03-21T15:56:53.908Z,13.36
2023-03-21T16:01:02.482Z,13.65
2023-03-21T16:05:22.386Z,13.67
2023-03-21T16:09:23.995Z,13.32
2023-03-21T16:13:25.408Z,13.15
2023-03-21T16:17:33.054Z,12.71
2023-03-21T16:21:34.994Z,12.49
2023-03-21T16:25:36.610Z,12.25
2023-03-21T16:29:38.013Z,12.10
2023-03-21T16:33:40.824Z,12.03
2023-03-21T16:37:42.977Z,12.00
2023-03-21T16:41:44.694Z,11.97
2023-03-21T16:45:46.192Z,11.92
2023-03-21T16:49:49.221Z,11.86
2023-03-21T16:53:50.640Z,11.79
2023-03-21T16:57:52.916Z,11.71
2023-03-21T17:01:54.345Z,11.68
2023-03-21T17:05:57.132Z,11.64
2023-03-21T17:09:58.607Z,11.62
2023-03-21T17:14:00.057Z,11.58
2023-03-21T17:18:01.736Z,11.54
2023-03-21T17:22:04.598Z,11.53
2023-03-21T17:26:06.260Z,11.47
2023-03-21T17:30:19.280Z,11.40
2023-03-21T17:34:20.734Z,11.42
2023-03-21T17:38:23.532Z,11.40
2023-03-21T17:42:25.090Z,11.34
2023-03-21T17:46:27.638Z,11.33
2023-03-21T17:50:32.946Z,11.27
2023-03-21T17:54:35.676Z,11.26
2023-03-21T17:58:37.091Z,11.24
2023-03-21T18:02:39.336Z,11.18
2023-03-21T18:06:40.756Z,11.11
2023-03-21T18:10:43.526Z,11.06
2023-03-21T18:14:44.941Z,11.10
2023-03-21T18:18:46.690Z,11.07
2023-03-21T18:22:49.047Z,11.07
2023-03-21T18:26:51.831Z,11.07
2023-03-21T18:31:14.389Z,11.04
2023-03-21T18:35:16.224Z,11.04
2023-03-21T18:39:17.643Z,11.02
2023-03-21T18:47:41.842Z,10.83
2023-03-21T18:51:43.340Z,10.77
2023-03-21T18:55:46.818Z,10.79
2023-03-21T18:59:50.446Z,10.80
2023-03-21T19:04:15.382Z,10.82
2023-03-21T19:08:13.237Z,10.74
2023-03-21T19:12:14.633Z,10.64
2023-03-21T19:16:17.971Z,10.58
2023-03-21T19:20:19.987Z,10.58
2023-03-21T19:24:27.788Z,10.59
2023-03-21T19:28:30.112Z,10.62
2023-03-21T19:32:33.219Z,10.58
2023-03-21T19:36:34.952Z,10.79
2023-03-21T19:40:39.003Z,10.87
2023-03-21T19:44:40.605Z,10.88
2023-03-21T19:48:44.848Z,10.94
2023-03-21T19:52:46.366Z,10.91
2023-03-21T19:56:48.341Z,10.93
2023-03-21T20:00:50.005Z,10.88
2023-03-21T20:04:52.844Z,10.74
2023-03-21T20:13:16.239Z,10.59
2023-03-21T20:17:17.667Z,10.48
2023-03-21T20:21:25.402Z,10.48
2023-03-21T20:25:27.339Z,10.39
2023-03-21T20:30:07.594Z,10.45
2023-03-21T20:33:50.878Z,10.38
2023-03-21T20:37:53.667Z,10.41
2023-03-21T20:41:55.071Z,10.37
2023-03-21T20:46:00.253Z,10.33
2023-03-21T20:50:01.822Z,10.44
2023-03-21T20:54:04.997Z,10.56
2023-03-21T20:58:26.779Z,10.68
2023-03-21T21:02:27.847Z,10.66
2023-03-21T21:06:29.375Z,10.73
2023-03-21T21:10:33.466Z,10.74
2023-03-21T21:14:35.941Z,10.72
2023-03-21T21:18:38.077Z,10.72
2023-03-21T21:22:40.229Z,10.67
2023-03-21T21:26:43.749Z,10.73
2023-03-21T21:30:45.575Z,10.71
2023-03-21T21:34:47.143Z,10.79
2023-03-21T21:38:48.589Z,10.69
2023-03-21T21:42:51.484Z,10.64
2023-03-21T21:46:52.898Z,10.63
2023-03-21T21:50:54.400Z,10.72
2023-03-21T21:54:55.807Z,10.67
2023-03-21T21:58:59.152Z,10.59
2023-03-21T22:03:01.761Z,10.48
2023-03-21T22:07:03.218Z,10.33
2023-03-21T22:11:05.704Z,10.21
2023-03-21T22:15:09.843Z,10.02
2023-03-21T22:19:11.283Z,10.00
2023-03-21T22:23:12.934Z,9.91
2023-03-21T22:27:14.350Z,9.83
2023-03-21T22:31:17.259Z,9.83
2023-03-21T22:35:18.954Z,9.77
2023-03-21T22:39:21.055Z,9.76
2023-03-21T22:43:22.513Z,9.73
2023-03-21T22:47:25.380Z,9.66
2023-03-21T22:51:26.883Z,9.59
2023-03-21T22:55:28.331Z,9.61
2023-03-21T22:59:30.123Z,9.58
2023-03-21T23:03:32.870Z,9.54
2023-03-21T23:07:34.401Z,9.49
2023-03-21T23:11:36.148Z,9.45
2023-03-21T23:15:37.734Z,9.45
2023-03-21T23:19:41.191Z,9.40
2023-03-21T23:23:43.936Z,9.39
2023-03-21T23:27:45.356Z,9.36
2023-03-21T23:31:46.910Z,9.30
2023-03-21T23:35:49.707Z,9.26
2023-03-21T23:44:00.147Z,9.29
2023-03-21T23:48:01.657Z,9.27
2023-03-21T23:52:04.806Z,9.29
2023-03-21T23:56:10.686Z,9.22
